Time;durP1;ratioP1;P1;durP2;ratioP2;P2;SDS_P1;SDS_P2;PMS_P1;PMS_P2;Temp;Humidity;BMP_temperature;BMP_pressure;BME280_temperature;BME280_humidity;BME280_pressure;Samples;Min_cycle;Max_cycle;Signal;HPM_P1;HPM_P2
2023/06/17 00:01:51;;;;;;;14.10;5.80;;;;;;;13.59;85.68;100015.27;110080;1267;22155;-63
2023/06/17 00:04:21;;;;;;;13.20;5.90;;;;;;;13.60;86.10;100011.64;110139;1264;22251;-63
2023/06/17 00:06:53;;;;;;;16.30;6.60;;;;;;;13.60;86.46;100007.71;110127;1271;22228;-63
2023/06/17 00:09:24;;;;;;;16.40;5.90;;;;;;;13.60;86.81;100006.08;110137;1272;22156;-63
2023/06/17 00:11:56;;;;;;;16.40;5.90;;;;;;;13.60;87.01;100006.19;110100;1273;22241;-63
2023/06/17 00:14:27;;;;;;;13.60;6.60;;;;;;;13.59;87.17;100001.18;110135;1273;22260;-63
2023/06/17 00:16:59;;;;;;;14.20;6.10;;;;;;;13.58;87.33;99998.27;110095;1271;22322;-63
2023/06/17 00:19:30;;;;;;;13.90;6.50;;;;;;;13.58;87.43;99996.54;110124;1272;22367;-63
2023/06/17 00:22:01;;;;;;;18.50;6.40;;;;;;;13.57;87.47;99995.77;110166;1271;22229;-63
2023/06/17 00:24:32;;;;;;;16.90;5.90;;;;;;;13.58;87.81;99994.30;110162;1274;22397;-63
2023/06/17 00:27:03;;;;;;;14.40;6.00;;;;;;;13.57;88.22;99996.14;110101;1275;22227;-63
2023/06/17 00:29:34;;;;;;;16.60;6.50;;;;;;;13.57;88.37;99991.95;110149;1272;23045;-63
2023/06/17 00:32:06;;;;;;;17.60;7.00;;;;;;;13.56;88.73;99990.48;110130;1268;22362;-63
2023/06/17 00:34:36;;;;;;;14.70;6.10;;;;;;;13.57;88.82;99987.27;110161;1274;22427;-63
2023/06/17 00:37:08;;;;;;;17.50;7.10;;;;;;;13.56;89.04;99990.48;110163;1265;22214;-63
2023/06/17 00:39:38;;;;;;;18.20;8.00;;;;;;;13.56;88.93;99988.23;110117;1274;22369;-63
2023/06/17 00:42:12;;;;;;;18.90;7.30;;;;;;;13.59;88.82;99991.45;110145;1271;22377;-63
2023/06/17 00:44:43;;;;;;;17.90;8.40;;;;;;;13.60;88.98;99988.23;110121;1272;22238;-63
2023/06/17 00:47:15;;;;;;;17.10;7.30;;;;;;;13.60;89.05;99992.62;110108;1272;22191;-63
2023/06/17 00:49:48;;;;;;;16.40;6.90;;;;;;;13.60;89.08;99989.91;110103;1274;22232;-63
2023/06/17 00:52:20;;;;;;;17.60;7.50;;;;;;;13.60;88.95;99991.51;110130;1275;23319;-63
2023/06/17 00:54:52;;;;;;;16.20;7.70;;;;;;;13.59;89.01;99991.64;110136;1278;22180;-63
2023/06/17 00:57:23;;;;;;;16.10;7.50;;;;;;;13.58;88.92;99993.48;110148;1270;22176;-63
2023/06/17 00:59:54;;;;;;;18.20;6.60;;;;;;;13.57;89.11;99991.14;110116;1271;22206;-63
2023/06/17 01:02:25;;;;;;;18.20;7.90;;;;;;;13.56;89.26;99987.61;110131;1274;23276;-63
2023/06/17 01:04:57;;;;;;;19.80;7.30;;;;;;;13.55;89.48;99992.35;110070;1275;22142;-63
2023/06/17 01:07:39;;;;;;;15.60;7.00;;;;;;;13.53;89.29;99992.20;110086;1265;23293;-63
2023/06/17 01:10:17;;;;;;;19.90;7.70;;;;;;;13.52;89.28;99991.13;110124;1268;24016;-63
2023/06/17 01:12:49;;;;;;;16.50;7.30;;;;;;;13.50;89.48;99992.13;110140;1278;22247;-63
2023/06/17 01:15:21;;;;;;;16.90;7.40;;;;;;;13.48;89.48;99989.13;110159;1268;22299;-63
2023/06/17 01:17:54;;;;;;;17.50;7.50;;;;;;;13.47;89.47;99987.17;110117;1268;22152;-62
2023/06/17 01:20:26;;;;;;;19.40;6.60;;;;;;;13.46;89.44;99988.30;110110;1270;22164;-63
2023/06/17 01:22:58;;;;;;;17.10;7.00;;;;;;;13.45;89.38;99983.23;110111;1275;22233;-63
2023/06/17 01:25:31;;;;;;;15.90;6.00;;;;;;;13.43;89.28;99985.08;110122;1272;22309;-63
2023/06/17 01:28:15;;;;;;;15.50;7.30;;;;;;;13.40;89.15;99988.22;110160;1275;22200;-63
2023/06/17 01:30:48;;;;;;;15.80;6.00;;;;;;;13.38;89.24;99983.67;110021;1279;22126;-63
2023/06/17 01:33:20;;;;;;;17.20;6.50;;;;;;;13.35;89.10;99985.77;110153;1274;22185;-63
2023/06/17 01:35:57;;;;;;;14.50;5.80;;;;;;;13.31;88.96;99986.30;110112;1265;23500;-63
2023/06/17 01:38:36;;;;;;;14.80;6.90;;;;;;;13.27;88.91;99988.03;110126;1272;22334;-63
2023/06/17 01:41:17;;;;;;;13.80;5.40;;;;;;;13.23;89.02;99986.77;110125;1274;22793;-63
2023/06/17 01:43:50;;;;;;;14.30;5.60;;;;;;;13.18;88.89;99985.75;110129;1273;22228;-63
2023/06/17 01:46:22;;;;;;;14.80;5.80;;;;;;;13.14;88.96;99983.55;110108;1265;23026;-63
2023/06/17 01:48:55;;;;;;;13.90;5.90;;;;;;;13.11;89.03;99981.73;110150;1274;22494;-64
2023/06/17 01:51:26;;;;;;;15.60;5.70;;;;;;;13.08;88.89;99983.00;110118;1274;23198;-63
2023/06/17 01:53:57;;;;;;;15.40;5.20;;;;;;;13.05;88.95;99987.98;110102;1272;22155;-63
2023/06/17 01:56:28;;;;;;;14.10;5.70;;;;;;;13.02;88.84;99991.29;110135;1268;22903;-63
2023/06/17 01:58:59;;;;;;;15.50;5.70;;;;;;;12.99;88.78;99990.31;110104;1274;22154;-63
2023/06/17 02:01:30;;;;;;;14.10;6.20;;;;;;;12.95;88.86;99987.95;110058;1264;23307;-63
2023/06/17 02:04:01;;;;;;;14.20;5.60;;;;;;;12.93;88.91;99991.30;110144;1277;22251;-63
2023/06/17 02:06:32;;;;;;;12.80;5.60;;;;;;;12.94;88.88;99985.80;110134;1272;23489;-63
2023/06/17 02:09:03;;;;;;;15.10;6.10;;;;;;;12.94;89.05;99987.73;110106;1274;22220;-63
2023/06/17 02:11:34;;;;;;;15.80;6.00;;;;;;;12.94;89.22;99990.95;110165;1268;23108;-63
2023/06/17 02:14:06;;;;;;;14.20;5.50;;;;;;;12.92;89.18;99990.48;110140;1274;22251;-63
2023/06/17 02:16:39;;;;;;;15.60;5.70;;;;;;;12.89;89.10;99996.84;110107;1274;22884;-63
2023/06/17 02:19:09;;;;;;;16.70;5.50;;;;;;;12.86;89.38;99994.16;110153;1263;22398;-64
2023/06/17 02:21:40;;;;;;;14.00;6.00;;;;;;;12.84;89.27;99992.32;110139;1278;22552;-64
2023/06/17 02:24:11;;;;;;;13.40;6.10;;;;;;;12.82;89.20;99991.79;110130;1274;22329;-64
2023/06/17 02:26:42;;;;;;;11.40;4.70;;;;;;;12.81;89.38;99991.63;110127;1271;22228;-64
2023/06/17 02:29:13;;;;;;;13.60;5.70;;;;;;;12.81;89.46;99992.44;110051;1271;22783;-64
2023/06/17 02:31:44;;;;;;;13.40;5.10;;;;;;;12.81;89.57;99994.53;110142;1267;22562;-64
2023/06/17 02:34:16;;;;;;;16.40;5.90;;;;;;;12.80;89.71;99994.19;110159;1272;22411;-64
2023/06/17 02:36:47;;;;;;;13.40;5.40;;;;;;;12.79;89.74;99996.10;110164;1278;22305;-64
2023/06/17 02:39:18;;;;;;;11.20;4.70;;;;;;;12.77;89.68;99992.12;110143;1272;22194;-64
2023/06/17 02:41:49;;;;;;;12.50;5.40;;;;;;;12.77;89.73;99995.98;110087;1264;22170;-64
2023/06/17 02:44:20;;;;;;;15.30;5.80;;;;;;;12.76;89.59;99991.65;110126;1266;22289;-64
2023/06/17 02:46:51;;;;;;;14.80;5.70;;;;;;;12.75;89.60;99993.79;110076;1273;22245;-64
2023/06/17 02:49:22;;;;;;;15.70;5.60;;;;;;;12.75;89.81;99991.80;110126;1263;22198;-64
2023/06/17 02:51:52;;;;;;;12.00;5.20;;;;;;;12.75;89.94;99995.17;110091;1279;22161;-64
2023/06/17 02:54:23;;;;;;;12.70;5.00;;;;;;;12.75;90.14;99997.20;110143;1274;22343;-64
2023/06/17 02:56:55;;;;;;;13.70;5.50;;;;;;;12.75;90.30;99993.54;110100;1273;22211;-64
2023/06/17 02:59:25;;;;;;;15.70;6.90;;;;;;;12.77;90.30;99987.18;110142;1268;22229;-64
2023/06/17 03:01:57;;;;;;;14.40;6.50;;;;;;;12.80;90.54;99991.98;110112;1274;22189;-64
2023/06/17 03:04:35;;;;;;;17.60;6.80;;;;;;;12.82;90.80;99992.52;110128;1272;22429;-64
2023/06/17 03:07:06;;;;;;;14.30;5.90;;;;;;;12.86;90.90;99991.06;110021;1272;22212;-64
2023/06/17 03:09:37;;;;;;;16.70;7.30;;;;;;;12.90;91.38;99990.73;110128;1278;22148;-64
2023/06/17 03:12:11;;;;;;;15.30;7.00;;;;;;;12.95;91.67;99992.69;110118;1277;22200;-64
2023/06/17 03:14:41;;;;;;;18.90;7.30;;;;;;;13.00;91.78;99987.30;110170;1265;22986;-64
2023/06/17 03:17:12;;;;;;;17.70;7.10;;;;;;;13.07;92.10;99989.82;110158;1268;22816;-64
2023/06/17 03:19:44;;;;;;;20.20;7.80;;;;;;;13.11;92.26;99990.87;110119;1277;22329;-64
2023/06/17 03:22:15;;;;;;;16.80;7.50;;;;;;;13.17;92.60;99986.95;110124;1272;22396;-64
2023/06/17 03:24:46;;;;;;;18.60;7.70;;;;;;;13.23;92.98;99990.05;110143;1273;23026;-64
2023/06/17 03:27:17;;;;;;;20.80;9.00;;;;;;;13.29;93.33;99993.64;110131;1276;22989;-64
2023/06/17 03:29:49;;;;;;;19.10;8.30;;;;;;;13.36;93.37;99991.73;110120;1273;22185;-64
2023/06/17 03:32:19;;;;;;;19.70;9.90;;;;;;;13.43;93.64;99993.03;110118;1276;22204;-64
2023/06/17 03:34:52;;;;;;;20.10;8.50;;;;;;;13.50;93.92;99991.32;110148;1274;22929;-64
2023/06/17 03:37:24;;;;;;;21.20;9.10;;;;;;;13.57;94.01;99990.84;110127;1274;23116;-64
2023/06/17 03:39:54;;;;;;;19.10;8.70;;;;;;;13.64;94.45;99992.13;110159;1279;22179;-64
2023/06/17 03:42:25;;;;;;;21.90;9.10;;;;;;;13.70;94.32;99992.30;110148;1267;22221;-64
2023/06/17 03:44:56;;;;;;;18.60;8.50;;;;;;;13.77;94.44;99987.56;110153;1268;22199;-64
2023/06/17 03:47:28;;;;;;;21.60;7.70;;;;;;;13.84;94.61;99987.58;110135;1268;22206;-64
2023/06/17 03:49:59;;;;;;;21.80;9.10;;;;;;;13.91;94.70;99986.36;110116;1268;22202;-64
2023/06/17 03:52:30;;;;;;;20.90;9.60;;;;;;;13.98;94.91;99987.34;110117;1272;22171;-64
2023/06/17 03:55:01;;;;;;;18.90;8.30;;;;;;;14.05;94.90;99987.51;110170;1278;22198;-64
2023/06/17 03:57:31;;;;;;;17.40;8.20;;;;;;;14.12;95.09;99987.87;110118;1272;22331;-64
2023/06/17 04:00:04;;;;;;;19.60;8.50;;;;;;;14.19;95.33;99987.00;110132;1268;22263;-64
2023/06/17 04:02:36;;;;;;;20.10;8.90;;;;;;;14.26;95.35;99988.28;110144;1268;22757;-64
2023/06/17 04:05:09;;;;;;;21.70;8.40;;;;;;;14.33;95.78;99990.29;110027;1273;22158;-64
2023/06/17 04:07:42;;;;;;;22.30;8.80;;;;;;;14.39;95.93;99988.72;110124;1268;22211;-64
2023/06/17 04:10:12;;;;;;;21.10;7.80;;;;;;;14.45;96.00;99986.27;110145;1264;22392;-64
2023/06/17 04:12:44;;;;;;;20.00;7.60;;;;;;;14.51;96.14;99988.40;110157;1278;22990;-64
2023/06/17 04:15:15;;;;;;;18.00;7.60;;;;;;;14.55;95.83;99985.89;110175;1268;22186;-64
2023/06/17 04:17:45;;;;;;;17.80;7.30;;;;;;;14.61;95.80;99988.09;110136;1273;22168;-64
2023/06/17 04:20:16;;;;;;;18.60;6.70;;;;;;;14.65;95.69;99988.08;110166;1270;22278;-64
2023/06/17 04:22:47;;;;;;;15.50;6.90;;;;;;;14.70;95.83;99990.05;110144;1273;22244;-64
2023/06/17 04:25:20;;;;;;;16.00;6.90;;;;;;;14.74;95.85;99989.39;110161;1271;22108;-64
2023/06/17 04:27:53;;;;;;;20.00;7.00;;;;;;;14.80;96.14;99989.48;110148;1279;22136;-64
2023/06/17 04:30:25;;;;;;;15.70;7.20;;;;;;;14.87;96.35;99987.42;110094;1274;22181;-64
2023/06/17 04:32:58;;;;;;;18.80;7.20;;;;;;;14.98;96.58;99986.11;110104;1274;22168;-65
2023/06/17 04:35:29;;;;;;;18.00;6.20;;;;;;;15.11;96.79;99989.13;110172;1268;22293;-64
2023/06/17 04:38:01;;;;;;;20.70;7.10;;;;;;;15.20;96.61;99988.48;110084;1277;22825;-64
2023/06/17 04:40:32;;;;;;;18.60;6.50;;;;;;;15.31;96.51;99987.23;110139;1274;22322;-64
2023/06/17 04:43:04;;;;;;;14.20;5.90;;;;;;;15.42;96.32;99984.67;110177;1278;22865;-64
2023/06/17 04:45:35;;;;;;;17.80;6.30;;;;;;;15.54;96.33;99986.68;110159;1278;22900;-64
2023/06/17 04:48:07;;;;;;;14.50;5.50;;;;;;;15.64;95.99;99979.62;110139;1271;22281;-64
2023/06/17 04:50:38;;;;;;;17.80;5.70;;;;;;;15.73;95.54;99985.30;110127;1274;22358;-64
2023/06/17 04:53:10;;;;;;;11.80;5.10;;;;;;;15.81;94.95;99983.39;110149;1272;22240;-64
2023/06/17 04:55:41;;;;;;;13.10;4.50;;;;;;;15.90;94.85;99982.02;110125;1265;22157;-64
2023/06/17 04:58:12;;;;;;;11.90;4.80;;;;;;;15.97;94.65;99984.20;110135;1272;22475;-64
2023/06/17 05:00:44;;;;;;;11.40;3.90;;;;;;;16.04;94.27;99985.04;110158;1278;22341;-64
2023/06/17 05:03:14;;;;;;;14.20;4.60;;;;;;;16.08;93.26;99991.00;110096;1268;22204;-64
2023/06/17 05:05:45;;;;;;;15.00;4.80;;;;;;;16.13;92.65;99993.36;110091;1276;22214;-64
2023/06/17 05:08:16;;;;;;;14.50;4.60;;;;;;;16.18;92.64;99992.92;110063;1277;22228;-64
2023/06/17 05:10:47;;;;;;;10.10;3.50;;;;;;;16.24;92.13;99993.75;110042;1274;22295;-68
2023/06/17 05:13:18;;;;;;;11.30;3.80;;;;;;;16.24;91.31;99993.55;110116;1273;22390;-64
2023/06/17 05:15:49;;;;;;;12.20;4.30;;;;;;;16.25;91.06;99991.13;110091;1279;22225;-64
2023/06/17 05:18:20;;;;;;;17.50;4.00;;;;;;;16.24;90.37;99983.70;110100;1268;22895;-65
2023/06/17 05:20:51;;;;;;;13.00;4.70;;;;;;;16.20;90.31;99983.73;110080;1272;22157;-64
2023/06/17 05:23:21;;;;;;;11.10;3.90;;;;;;;16.14;89.97;99985.73;110071;1270;22213;-64
2023/06/17 05:25:52;;;;;;;16.20;4.30;;;;;;;16.09;90.25;99988.02;110086;1264;22252;-64
2023/06/17 05:28:23;;;;;;;12.30;4.30;;;;;;;16.05;90.39;99988.36;110092;1264;22170;-64
2023/06/17 05:30:54;;;;;;;11.30;3.60;;;;;;;16.03;90.02;99994.16;110094;1276;22803;-64
2023/06/17 05:33:25;;;;;;;14.80;4.50;;;;;;;15.99;90.39;99993.92;110120;1270;22200;-64
2023/06/17 05:36:00;;;;;;;11.50;4.60;;;;;;;15.99;90.49;99996.24;110102;1264;22985;-64
2023/06/17 05:38:31;;;;;;;13.60;3.90;;;;;;;15.96;90.02;99995.23;109947;1264;22327;-65
2023/06/17 05:41:01;;;;;;;13.00;3.90;;;;;;;15.95;90.11;99994.52;110120;1273;22164;-64
2023/06/17 05:43:32;;;;;;;12.80;4.00;;;;;;;15.96;90.25;99995.27;110177;1274;22416;-64
2023/06/17 05:46:03;;;;;;;13.20;3.60;;;;;;;15.97;89.97;99991.19;110124;1276;22244;-64
2023/06/17 05:48:35;;;;;;;17.40;4.80;;;;;;;15.98;89.81;99985.64;110083;1272;22448;-64
2023/06/17 05:51:06;;;;;;;13.50;4.00;;;;;;;16.02;89.71;99984.03;110079;1265;22349;-68
2023/06/17 05:53:36;;;;;;;16.40;4.30;;;;;;;16.07;89.41;99984.97;110088;1269;22164;-64
2023/06/17 05:56:11;;;;;;;12.00;3.60;;;;;;;16.13;89.48;99985.48;110079;1276;22177;-64
2023/06/17 05:58:42;;;;;;;14.00;4.40;;;;;;;16.19;89.57;99984.61;109852;1273;22142;-65
2023/06/17 06:01:13;;;;;;;13.50;6.00;;;;;;;16.29;89.93;99989.05;110074;1264;22386;-64
2023/06/17 06:03:44;;;;;;;14.70;4.30;;;;;;;16.37;89.52;99990.83;110099;1272;22170;-64
2023/06/17 06:06:15;;;;;;;11.30;3.90;;;;;;;16.43;89.51;99991.90;110100;1273;22230;-64
2023/06/17 06:08:47;;;;;;;12.10;4.20;;;;;;;16.50;88.68;99988.36;110101;1272;23009;-65
2023/06/17 06:11:18;;;;;;;12.90;4.50;;;;;;;16.56;88.87;99993.51;110040;1273;22251;-70
2023/06/17 06:13:49;;;;;;;17.10;4.90;;;;;;;16.63;88.64;99995.44;110125;1275;22215;-67
2023/06/17 06:16:20;;;;;;;15.60;4.80;;;;;;;16.69;88.25;99992.10;110108;1271;22192;-70
2023/06/17 06:18:52;;;;;;;10.00;4.00;;;;;;;16.76;88.23;99997.36;110043;1278;22960;-70
2023/06/17 06:21:23;;;;;;;19.20;5.10;;;;;;;16.87;88.40;99995.71;110112;1276;22907;-70
2023/06/17 06:23:54;;;;;;;11.10;3.70;;;;;;;17.04;88.30;99999.11;110123;1274;22221;-68
2023/06/17 06:26:45;;;;;;;10.90;4.00;;;;;;;17.19;87.79;100003.10;110079;1276;22200;-71
2023/06/17 06:29:16;;;;;;;10.40;3.60;;;;;;;17.29;87.07;100005.05;109812;1276;22349;-69
2023/06/17 06:31:47;;;;;;;10.10;3.30;;;;;;;17.37;86.94;100007.03;109903;1274;23108;-70
2023/06/17 06:34:18;;;;;;;16.50;4.70;;;;;;;17.50;86.36;100008.85;109922;1274;22381;-64
2023/06/17 06:36:49;;;;;;;13.70;3.80;;;;;;;17.59;85.80;100014.16;109975;1280;22172;-64
2023/06/17 06:39:20;;;;;;;11.30;4.10;;;;;;;17.62;85.28;100018.20;109987;1269;22111;-64
2023/06/17 06:41:51;;;;;;;12.40;3.90;;;;;;;17.62;84.81;100018.85;109954;1278;22202;-64
2023/06/17 06:44:22;;;;;;;14.90;3.60;;;;;;;17.59;84.54;100021.66;105852;1274;5447968;-64
2023/06/17 06:46:55;;;;;;;9.40;3.00;;;;;;;17.60;84.72;100018.99;109958;1274;22223;-64
2023/06/17 06:49:26;;;;;;;9.70;3.00;;;;;;;17.61;84.23;100020.14;109964;1273;22179;-64
2023/06/17 06:51:56;;;;;;;12.30;4.10;;;;;;;17.60;83.59;100017.85;109942;1274;23013;-68
2023/06/17 06:54:27;;;;;;;9.50;3.50;;;;;;;17.58;84.10;100022.34;109944;1269;22932;-66
2023/06/17 06:56:58;;;;;;;11.00;3.40;;;;;;;17.62;83.93;100026.45;109978;1274;22631;-67
2023/06/17 06:59:29;;;;;;;12.20;3.60;;;;;;;17.66;83.72;100021.58;109965;1275;22168;-67
2023/06/17 07:02:00;;;;;;;12.30;3.50;;;;;;;17.71;83.57;100018.73;109928;1273;22182;-67
2023/06/17 07:04:34;;;;;;;10.70;3.50;;;;;;;17.77;83.55;100022.51;109918;1273;22628;-67
2023/06/17 07:07:05;;;;;;;10.50;3.50;;;;;;;17.81;82.55;100018.40;109962;1273;22211;-64
2023/06/17 07:09:36;;;;;;;10.90;3.60;;;;;;;17.83;82.46;100021.30;109942;1281;22153;-66
2023/06/17 07:12:09;;;;;;;10.30;3.50;;;;;;;17.88;82.82;100019.79;109936;1270;23050;-65
2023/06/17 07:14:39;;;;;;;15.40;3.80;;;;;;;17.94;82.69;100022.16;109957;1270;23034;-65
2023/06/17 07:17:10;;;;;;;11.60;3.60;;;;;;;18.03;82.66;100022.14;109862;1273;22441;-63
2023/06/17 07:19:41;;;;;;;13.40;3.10;;;;;;;18.13;82.32;100022.14;109955;1269;22481;-62
2023/06/17 07:22:12;;;;;;;12.50;2.60;;;;;;;18.17;81.66;100021.61;109928;1273;22290;-63
2023/06/17 07:24:43;;;;;;;10.20;3.50;;;;;;;18.23;81.53;100022.15;109947;1274;22185;-64
2023/06/17 07:27:15;;;;;;;10.50;3.30;;;;;;;18.30;81.63;100022.55;109957;1267;22164;-63
2023/06/17 07:29:46;;;;;;;11.20;2.50;;;;;;;18.35;81.43;100025.80;110056;1273;22985;-65
2023/06/17 07:32:17;;;;;;;10.10;3.30;;;;;;;18.38;80.70;100027.33;110044;1267;22149;-64
2023/06/17 07:34:48;;;;;;;10.90;2.70;;;;;;;18.40;80.32;100028.34;110031;1270;22256;-65
2023/06/17 07:37:19;;;;;;;8.40;3.00;;;;;;;18.38;80.15;100029.81;110061;1273;22351;-63
2023/06/17 07:39:50;;;;;;;10.10;3.30;;;;;;;18.41;80.19;100027.40;110062;1277;22278;-65
2023/06/17 07:42:21;;;;;;;11.90;3.00;;;;;;;18.43;79.70;100024.39;110037;1263;23062;-64
2023/06/17 07:44:52;;;;;;;9.10;2.70;;;;;;;18.45;79.18;100027.25;110020;1264;22973;-64
2023/06/17 07:47:24;;;;;;;10.20;2.80;;;;;;;18.42;78.16;100029.39;110042;1276;22298;-65
2023/06/17 07:49:55;;;;;;;9.40;2.50;;;;;;;18.34;77.42;100026.39;110105;1269;23151;-66
2023/06/17 07:52:26;;;;;;;11.80;3.70;;;;;;;18.24;77.30;100025.98;110063;1267;22212;-67
2023/06/17 07:54:56;;;;;;;12.90;2.70;;;;;;;18.17;77.72;100023.05;110108;1273;22363;-65
2023/06/17 07:57:27;;;;;;;8.10;2.80;;;;;;;18.22;78.30;100027.29;110006;1264;22192;-69
2023/06/17 08:00:00;;;;;;;9.70;3.50;;;;;;;18.31;78.01;100029.45;110049;1268;23052;-66
2023/06/17 08:02:35;;;;;;;12.30;2.60;;;;;;;18.37;77.36;100028.69;110115;1274;22307;-66
2023/06/17 08:05:07;;;;;;;8.80;2.70;;;;;;;18.42;77.42;100027.19;110094;1273;22203;-66
2023/06/17 08:07:38;;;;;;;11.90;3.20;;;;;;;18.51;77.15;100023.77;110033;1269;22346;-67
2023/06/17 08:10:10;;;;;;;8.50;2.00;;;;;;;18.61;76.88;100024.42;110062;1263;22345;-65
2023/06/17 08:12:42;;;;;;;10.90;2.60;;;;;;;18.74;76.43;100022.56;110039;1273;22210;-66
2023/06/17 08:15:13;;;;;;;7.40;2.20;;;;;;;18.80;75.57;100026.30;110062;1264;22345;-67
2023/06/17 08:17:44;;;;;;;11.50;2.90;;;;;;;18.82;75.40;100020.92;110047;1270;22442;-66
2023/06/17 08:20:16;;;;;;;8.50;2.70;;;;;;;18.84;74.86;100023.04;110037;1273;22198;-67
2023/06/17 08:22:48;;;;;;;10.70;2.50;;;;;;;18.87;74.85;100022.48;109908;1269;22302;-66
2023/06/17 08:25:19;;;;;;;9.30;2.80;;;;;;;18.91;73.96;100028.98;109961;1264;22334;-66
2023/06/17 08:27:50;;;;;;;9.00;3.10;;;;;;;18.91;74.52;100021.06;109912;1273;22689;-66
2023/06/17 08:30:22;;;;;;;12.50;3.10;;;;;;;19.03;74.76;100015.27;110008;1268;22364;-63
2023/06/17 08:32:53;;;;;;;11.30;2.90;;;;;;;19.14;74.24;100017.96;109939;1270;23147;-64
2023/06/17 08:35:24;;;;;;;11.20;3.60;;;;;;;19.25;74.09;100013.05;110005;1273;22967;-64
2023/06/17 08:37:54;;;;;;;10.10;3.00;;;;;;;19.32;73.76;100013.52;109993;1269;23384;-65
2023/06/17 08:40:27;;;;;;;8.00;2.50;;;;;;;19.38;73.22;100010.36;109954;1272;23452;-65
2023/06/17 08:43:03;;;;;;;10.50;3.50;;;;;;;19.46;73.09;100004.46;110006;1269;22339;-65
2023/06/17 08:45:34;;;;;;;10.20;2.50;;;;;;;19.55;73.21;100007.08;109980;1272;22333;-66
2023/06/17 08:48:06;;;;;;;11.90;3.30;;;;;;;19.62;72.33;100008.45;109978;1273;22854;-65
2023/06/17 08:50:38;;;;;;;13.20;4.50;;;;;;;19.68;72.08;100005.28;109983;1273;22318;-64
2023/06/17 08:53:08;;;;;;;8.50;2.90;;;;;;;19.70;71.93;100005.56;109958;1264;22409;-64
2023/06/17 08:55:40;;;;;;;10.30;3.30;;;;;;;19.75;72.10;100006.88;109910;1272;23080;-65
2023/06/17 08:58:11;;;;;;;11.10;3.40;;;;;;;19.78;71.37;100004.45;109973;1263;22387;-64
2023/06/17 09:00:42;;;;;;;10.90;3.90;;;;;;;19.82;71.62;100002.76;109981;1273;22188;-66
2023/06/17 09:03:15;;;;;;;14.40;4.70;;;;;;;19.85;70.81;100007.32;110010;1272;22175;-64
2023/06/17 09:05:46;;;;;;;9.70;3.40;;;;;;;19.86;70.75;100001.02;109982;1271;22235;-65
2023/06/17 09:08:17;;;;;;;10.40;3.00;;;;;;;19.86;70.06;99999.63;110046;1264;22214;-64
2023/06/17 09:10:48;;;;;;;10.50;3.10;;;;;;;19.84;70.45;100000.66;110020;1264;22204;-64
2023/06/17 09:13:19;;;;;;;9.50;2.90;;;;;;;19.83;70.70;100001.45;110044;1272;22307;-64
2023/06/17 09:15:50;;;;;;;10.10;3.00;;;;;;;19.85;70.69;99999.54;110055;1272;23242;-65
2023/06/17 09:18:23;;;;;;;10.10;3.00;;;;;;;19.87;69.82;99997.71;110066;1267;22182;-65
2023/06/17 09:20:55;;;;;;;9.20;2.60;;;;;;;19.92;69.60;99995.89;110016;1263;22296;-64
2023/06/17 09:23:27;;;;;;;7.20;2.50;;;;;;;20.02;69.44;99992.56;110031;1271;22320;-64
2023/06/17 09:26:05;;;;;;;8.50;2.60;;;;;;;20.24;70.22;99991.96;110055;1268;22247;-65
2023/06/17 09:28:35;;;;;;;9.20;2.80;;;;;;;20.50;69.29;99992.86;110054;1273;22312;-66
2023/06/17 09:31:06;;;;;;;13.50;2.60;;;;;;;20.62;68.01;99994.33;110018;1272;22869;-65
2023/06/17 09:33:38;;;;;;;8.60;2.10;;;;;;;20.57;67.00;99995.15;109918;1272;22297;-65
2023/06/17 09:36:10;;;;;;;9.10;2.50;;;;;;;20.47;66.94;99995.75;109901;1272;22199;-66
2023/06/17 09:38:42;;;;;;;7.20;2.10;;;;;;;20.36;66.90;99996.63;110052;1268;23031;-65
2023/06/17 09:41:18;;;;;;;9.50;2.10;;;;;;;20.26;66.95;99997.17;110084;1272;22448;-65
2023/06/17 09:43:52;;;;;;;8.20;2.50;;;;;;;20.27;67.47;100000.25;110084;1264;22344;-64
2023/06/17 09:46:29;;;;;;;8.70;2.40;;;;;;;20.37;66.52;99996.00;110099;1276;22179;-65
2023/06/17 09:49:00;;;;;;;8.20;2.10;;;;;;;20.48;66.89;99995.76;110019;1277;22361;-65
2023/06/17 09:51:37;;;;;;;12.90;2.90;;;;;;;20.62;66.21;99993.64;110059;1267;22324;-65
2023/06/17 09:54:09;;;;;;;11.60;2.50;;;;;;;20.68;65.95;99988.63;110006;1264;22224;-64
2023/06/17 09:56:40;;;;;;;10.30;2.70;;;;;;;20.70;65.70;99987.42;110092;1269;23069;-64
2023/06/17 09:59:11;;;;;;;35.30;8.10;;;;;;;20.69;65.53;99985.42;110050;1264;22200;-66
2023/06/17 10:01:42;;;;;;;107.10;34.40;;;;;;;20.15;93.57;99990.23;110016;1273;23698;-65
2023/06/17 10:04:13;;;;;;;20.70;7.50;;;;;;;19.19;82.15;99997.69;110057;1263;22268;-65
2023/06/17 10:06:47;;;;;;;10.60;2.50;;;;;;;18.45;81.91;99994.86;110036;1270;22186;-65
2023/06/17 10:09:18;;;;;;;11.20;2.90;;;;;;;18.15;82.26;99994.31;109952;1263;23295;-65
2023/06/17 10:11:54;;;;;;;8.00;3.20;;;;;;;18.00;82.69;99992.09;109994;1273;22316;-66
2023/06/17 10:14:30;;;;;;;13.10;2.70;;;;;;;17.98;83.99;99987.74;110012;1273;22207;-66
2023/06/17 10:17:06;;;;;;;11.60;3.10;;;;;;;18.13;85.18;99986.44;109935;1268;22228;-66
2023/06/17 10:19:41;;;;;;;9.90;2.70;;;;;;;18.40;83.62;99988.17;110028;1264;22231;-66
2023/06/17 10:22:16;;;;;;;10.80;2.30;;;;;;;18.64;80.32;99984.33;110054;1264;22272;-66
2023/06/17 10:24:47;;;;;;;7.50;2.40;;;;;;;18.92;78.82;99989.06;110130;1278;22457;-66
2023/06/17 10:27:21;;;;;;;10.30;1.90;;;;;;;19.29;77.37;99985.23;110045;1267;22234;-66
2023/06/17 10:29:52;;;;;;;8.60;2.30;;;;;;;19.60;75.81;99986.00;110016;1268;22346;-66
2023/06/17 10:32:25;;;;;;;6.60;2.30;;;;;;;19.81;75.13;99984.55;110014;1264;22272;-66
2023/06/17 10:35:12;;;;;;;6.80;2.00;;;;;;;19.96;74.45;99985.14;110024;1269;22206;-65
2023/06/17 10:38:06;;;;;;;6.80;2.30;;;;;;;20.08;73.89;99981.17;110033;1272;22433;-70
2023/06/17 10:40:50;;;;;;;7.70;2.10;;;;;;;20.21;73.06;99984.88;109951;1268;22212;-65
2023/06/17 10:43:23;;;;;;;7.50;2.30;;;;;;;20.25;72.85;99981.90;109974;1272;22305;-65
2023/06/17 10:45:57;;;;;;;6.80;2.30;;;;;;;20.32;71.81;99980.75;110057;1264;22297;-65
2023/06/17 10:48:32;;;;;;;7.20;2.20;;;;;;;20.37;71.50;99982.61;110048;1273;22275;-65
2023/06/17 10:51:11;;;;;;;7.50;1.90;;;;;;;20.49;70.99;99979.89;110025;1273;22190;-65
2023/06/17 10:53:50;;;;;;;8.00;2.20;;;;;;;20.60;69.59;99983.75;110050;1272;22221;-65
2023/06/17 10:56:21;;;;;;;7.90;2.00;;;;;;;20.65;68.59;99981.23;109945;1270;22230;-65
2023/06/17 10:58:53;;;;;;;8.90;1.90;;;;;;;20.63;67.92;99981.90;110014;1265;22375;-65
2023/06/17 11:01:26;;;;;;;9.90;2.50;;;;;;;20.60;65.73;99983.03;110004;1271;22285;-65
2023/06/17 11:04:07;;;;;;;6.30;2.40;;;;;;;20.50;66.61;99981.98;110039;1278;22184;-65
2023/06/17 11:06:38;;;;;;;7.10;2.10;;;;;;;20.50;66.65;99981.36;110066;1264;22370;-65
2023/06/17 11:09:11;;;;;;;8.70;2.30;;;;;;;20.48;66.13;99983.38;110029;1273;22211;-66
2023/06/17 11:11:43;;;;;;;8.00;2.50;;;;;;;20.49;66.29;99977.80;110087;1264;22281;-66
2023/06/17 11:14:18;;;;;;;6.10;2.20;;;;;;;20.53;66.73;99972.05;109996;1260;22264;-65
2023/06/17 11:16:52;;;;;;;8.00;2.40;;;;;;;20.65;66.10;99970.75;110080;1272;22206;-65
2023/06/17 11:19:24;;;;;;;6.40;2.20;;;;;;;20.69;64.90;99966.89;110030;1264;22187;-65
2023/06/17 11:22:03;;;;;;;8.90;2.30;;;;;;;20.69;64.63;99963.75;110048;1266;22351;-65
2023/06/17 11:24:35;;;;;;;8.80;2.20;;;;;;;20.75;64.29;99958.23;110052;1271;22135;-65
2023/06/17 11:27:10;;;;;;;9.00;2.60;;;;;;;20.83;64.43;99958.02;110012;1272;22231;-65
2023/06/17 11:29:43;;;;;;;6.70;1.90;;;;;;;20.94;64.61;99958.21;110087;1270;22207;-65
2023/06/17 11:32:15;;;;;;;9.30;2.60;;;;;;;21.06;64.29;99956.23;110027;1272;22402;-64
2023/06/17 11:34:49;;;;;;;8.30;2.60;;;;;;;21.16;63.04;99960.94;110023;1273;23028;-65
2023/06/17 11:37:22;;;;;;;9.10;3.20;;;;;;;21.21;62.40;99956.50;110046;1279;23224;-66
2023/06/17 11:39:59;;;;;;;8.50;3.30;;;;;;;21.21;61.71;99957.34;110055;1264;22199;-65